Time;durP1;ratioP1;P1;durP2;ratioP2;P2;SDS_P1;SDS_P2;PMS_P1;PMS_P2;Temp;Humidity;BMP_temperature;BMP_pressure;BME280_temperature;BME280_humidity;BME280_pressure;Samples;Min_cycle;Max_cycle;Signal;HPM_P1;HPM_P2
2022/12/21 00:01:24;;;;;;;9.85;7.43;;;;;;;6.89;71.18;96600.03;4996863;28;20057;-80
2022/12/21 00:04:09;;;;;;;9.70;7.15;;;;;;;6.87;71.73;96591.59;4996443;28;20035;-80
2022/12/21 00:06:43;;;;;;;11.15;6.80;;;;;;;6.85;71.46;96597.91;4980143;28;20078;-80
2022/12/21 00:09:27;;;;;;;9.52;7.32;;;;;;;6.80;71.79;96591.41;4975348;28;20043;-80
2022/12/21 00:11:58;;;;;;;11.38;7.28;;;;;;;6.76;71.84;96587.50;4975122;28;20106;-80
2022/12/21 00:14:31;;;;;;;12.10;7.15;;;;;;;6.75;72.57;96585.06;4962254;28;20043;-80
2022/12/21 00:17:02;;;;;;;13.98;7.40;;;;;;;6.76;72.46;96590.09;4974710;28;20053;-78
2022/12/21 00:19:33;;;;;;;9.95;6.65;;;;;;;6.79;72.70;96591.56;4954745;28;20130;-80
2022/12/21 00:22:01;;;;;;;9.40;7.00;;;;;;;6.82;72.54;96596.41;4973682;28;20050;-80
2022/12/21 00:24:37;;;;;;;10.70;7.10;;;;;;;6.84;72.72;96586.69;4974354;28;20053;-80
2022/12/21 00:27:08;;;;;;;9.15;7.13;;;;;;;6.85;72.65;96582.34;4973976;28;20059;-80
2022/12/21 00:29:40;;;;;;;9.50;7.00;;;;;;;6.84;72.78;96581.50;4973893;28;20164;-79
2022/12/21 00:35:11;;;;;;;12.00;8.55;;;;;;;6.84;72.63;96594.47;4945342;28;20075;-79
2022/12/21 00:37:46;;;;;;;12.30;8.48;;;;;;;6.83;72.70;96603.25;4954635;28;20067;-80
2022/12/21 00:40:23;;;;;;;12.95;7.88;;;;;;;6.83;72.97;96597.25;4959107;28;20055;-80
2022/12/21 00:43:01;;;;;;;12.30;7.80;;;;;;;6.83;72.98;96603.25;4973448;28;20097;-80
2022/12/21 00:45:44;;;;;;;10.40;7.47;;;;;;;6.80;73.26;96606.16;4974194;28;20054;-80
2022/12/21 00:48:26;;;;;;;11.05;7.72;;;;;;;6.77;73.06;96601.28;4977943;28;20452;-80
2022/12/21 00:51:09;;;;;;;15.00;8.13;;;;;;;6.73;73.35;96605.13;4987466;28;20094;-80
2022/12/21 00:54:01;;;;;;;;;;;;;;;;;;;;;
2022/12/21 00:56:43;;;;;;;12.45;8.65;;;;;;;6.69;73.88;96614.19;4984951;28;20129;-80
2022/12/21 00:59:30;;;;;;;12.77;8.27;;;;;;;6.67;73.75;96611.78;4977919;28;20050;-80
2022/12/21 01:02:22;;;;;;;10.63;8.05;;;;;;;6.66;74.30;96617.13;4977497;28;20065;-80
2022/12/21 01:05:02;;;;;;;11.18;8.60;;;;;;;6.64;74.04;96626.81;4958479;29;20055;-80
2022/12/21 01:07:43;;;;;;;12.55;8.80;;;;;;;6.61;74.15;96617.59;4962424;28;20051;-79
2022/12/21 01:10:31;;;;;;;10.25;7.18;;;;;;;6.59;74.32;96614.34;4977117;28;20043;-80
2022/12/21 01:13:13;;;;;;;12.40;7.95;;;;;;;6.55;74.91;96613.03;4977233;28;20105;-80
2022/12/21 01:15:55;;;;;;;11.27;7.43;;;;;;;6.53;75.59;96623.53;4977441;28;20429;-80
2022/12/21 01:18:41;;;;;;;9.57;7.80;;;;;;;6.54;75.16;96625.19;4975226;28;20047;-80
2022/12/21 01:21:15;;;;;;;11.18;7.90;;;;;;;6.58;75.45;96617.88;4976217;28;20081;-80
2022/12/21 01:23:43;;;;;;;9.50;7.53;;;;;;;6.59;75.39;96615.16;4976634;28;20425;-80
2022/12/21 01:26:12;;;;;;;13.40;8.00;;;;;;;6.60;75.40;96614.19;4974988;28;20151;-80
2022/12/21 01:28:39;;;;;;;11.15;7.50;;;;;;;6.63;75.65;96620.03;4974857;28;20054;-80
2022/12/21 01:31:09;;;;;;;10.98;8.65;;;;;;;6.61;75.65;96617.59;4974559;28;20043;-80
2022/12/21 01:33:41;;;;;;;15.60;9.02;;;;;;;6.59;75.84;96615.16;4975092;28;20046;-80
2022/12/21 01:36:11;;;;;;;15.02;9.65;;;;;;;6.57;75.91;96611.91;4974700;28;20050;-80
2022/12/21 01:38:39;;;;;;;15.35;10.38;;;;;;;6.58;75.98;96618.72;4974920;28;20054;-80
2022/12/21 01:41:07;;;;;;;14.02;10.23;;;;;;;6.56;76.05;96618.06;4976299;28;20058;-80
2022/12/21 01:43:44;;;;;;;13.10;10.45;;;;;;;6.56;76.57;96619.84;4977743;28;20050;-80
2022/12/21 01:46:16;;;;;;;16.15;10.90;;;;;;;6.53;76.62;96615.75;4978232;28;20101;-80
2022/12/21 01:48:52;;;;;;;13.23;9.75;;;;;;;6.53;77.03;96617.53;4981878;28;20056;-80
2022/12/21 01:51:19;;;;;;;12.88;9.18;;;;;;;6.50;76.61;96610.91;4979518;28;20043;-80
2022/12/21 01:53:52;;;;;;;9.98;7.80;;;;;;;6.47;77.22;96606.03;4977451;28;20059;-79
2022/12/21 01:56:24;;;;;;;10.20;7.40;;;;;;;6.47;77.56;96600.84;4976607;28;20051;-80
2022/12/21 01:58:52;;;;;;;8.52;6.40;;;;;;;6.48;77.71;96594.69;4976397;28;20058;-80
2022/12/21 02:01:20;;;;;;;9.35;6.80;;;;;;;6.51;77.85;96586.59;4976813;28;20425;-80
2022/12/21 02:03:53;;;;;;;11.23;7.90;;;;;;;6.54;78.62;96604.44;4976529;28;20076;-80
2022/12/21 02:06:28;;;;;;;10.10;7.82;;;;;;;6.58;78.69;96595.38;4976677;28;20069;-79
2022/12/21 02:08:56;;;;;;;9.48;8.32;;;;;;;6.62;78.50;96595.06;4976378;28;20114;-80
2022/12/21 02:11:24;;;;;;;10.35;8.10;;;;;;;6.64;78.46;96585.34;4975844;28;20051;-80
2022/12/21 02:13:53;;;;;;;12.18;8.85;;;;;;;6.63;78.16;96584.56;4976500;28;20059;-80
2022/12/21 02:16:31;;;;;;;11.90;8.45;;;;;;;6.60;78.38;96590.88;4976613;28;20055;-80
2022/12/21 02:19:34;;;;;;;13.35;7.97;;;;;;;6.60;78.94;96595.22;4976890;28;20046;-80
2022/12/21 02:22:04;;;;;;;12.73;9.20;;;;;;;6.57;78.38;96606.72;4976267;28;20089;-80
2022/12/21 02:25:19;;;;;;;11.85;8.95;;;;;;;6.56;78.99;96602.50;4976331;28;20054;-80
2022/12/21 02:28:26;;;;;;;13.40;9.45;;;;;;;6.48;78.55;96605.06;4985696;28;20034;-78
2022/12/21 02:31:04;;;;;;;15.15;10.93;;;;;;;6.40;78.44;96599.84;4997559;28;20061;-80
2022/12/21 02:33:45;;;;;;;13.95;9.20;;;;;;;6.35;78.82;96602.09;4991443;28;20046;-79
2022/12/21 02:36:27;;;;;;;10.63;8.40;;;;;;;6.30;79.04;96594.78;4977572;28;20133;-80
2022/12/21 02:39:03;;;;;;;10.68;7.97;;;;;;;6.29;79.29;96587.16;4976152;28;20145;-80
2022/12/21 02:41:42;;;;;;;11.35;9.30;;;;;;;6.28;79.18;96588.16;4976177;28;20055;-80
2022/12/21 02:44:24;;;;;;;10.98;8.50;;;;;;;6.24;79.39;96584.22;4975804;28;20055;-80
2022/12/21 02:47:08;;;;;;;15.05;10.90;;;;;;;6.21;79.75;96585.34;4975578;28;20476;-80
2022/12/21 02:49:42;;;;;;;14.05;8.75;;;;;;;6.20;79.35;96591.50;4975398;28;20085;-80
2022/12/21 02:52:15;;;;;;;11.90;8.93;;;;;;;6.22;79.66;96596.53;4977048;28;20464;-80
2022/12/21 02:54:46;;;;;;;13.85;8.55;;;;;;;6.23;79.43;96592.94;4975788;28;20055;-80
2022/12/21 02:57:19;;;;;;;12.90;9.20;;;;;;;6.23;79.26;96585.19;4975647;28;20062;-80
2022/12/21 02:59:51;;;;;;;13.50;8.98;;;;;;;6.17;79.15;96574.47;4975639;28;20141;-80
2022/12/21 03:06:03;;;;;;;13.93;10.90;;;;;;;6.10;79.68;96578.66;4954970;28;20145;-80
2022/12/21 03:08:43;;;;;;;13.50;9.57;;;;;;;6.08;79.91;96575.41;4974799;28;20137;-80
2022/12/21 03:11:11;;;;;;;13.55;9.32;;;;;;;6.09;79.56;96582.19;4975117;28;20106;-80
2022/12/21 03:13:47;;;;;;;13.70;10.43;;;;;;;6.06;79.94;96579.94;4975395;28;20058;-80
2022/12/21 03:16:20;;;;;;;12.82;10.23;;;;;;;6.05;79.77;96575.72;4975488;28;20086;-80
2022/12/21 06:41:23;;;;;;;11.68;8.52;;;;;;;6.29;82.00;96535.34;6096573;23;21095;-81
2022/12/21 06:43:54;;;;;;;12.25;9.98;;;;;;;6.26;81.54;96526.13;4992091;28;20095;-82
2022/12/21 07:07:53;;;;;;;12.82;9.52;;;;;;;6.25;82.33;96531.44;5387140;23;20104;-81
2022/12/21 07:10:20;;;;;;;13.20;8.70;;;;;;;6.25;82.19;96534.84;5012117;28;20054;-81
2022/12/21 07:12:48;;;;;;;11.27;9.20;;;;;;;6.26;82.26;96538.25;4989411;28;20066;-81
2022/12/21 07:15:16;;;;;;;15.00;9.20;;;;;;;6.28;82.29;96533.75;4989297;28;20058;-81
2022/12/21 07:17:44;;;;;;;11.50;8.88;;;;;;;6.28;82.42;96536.34;4995838;28;20054;-79
2022/12/21 07:20:11;;;;;;;14.40;8.98;;;;;;;6.29;82.45;96530.16;4993259;28;20057;-81
2022/12/21 07:22:39;;;;;;;13.13;8.73;;;;;;;6.31;82.72;96533.41;4991693;28;20053;-80
2022/12/21 07:25:09;;;;;;;15.35;10.48;;;;;;;6.33;82.64;96542.66;4991820;28;20053;-80
2022/12/21 07:27:37;;;;;;;11.75;8.38;;;;;;;6.36;82.76;96541.53;4993058;28;20492;-80
2022/12/21 07:30:06;;;;;;;12.50;8.50;;;;;;;6.40;82.85;96532.47;4991619;28;20234;-81
2022/12/21 07:32:34;;;;;;;11.45;8.88;;;;;;;6.45;82.96;96530.25;4991978;28;20419;-78
2022/12/21 07:35:01;;;;;;;12.63;8.32;;;;;;;6.48;83.32;96536.88;4991596;28;20057;-79
2022/12/21 07:37:29;;;;;;;14.45;8.93;;;;;;;6.51;82.82;96529.59;4992165;28;20058;-79
2022/12/21 07:39:56;;;;;;;10.43;8.73;;;;;;;6.54;83.22;96538.84;4993103;28;20058;-79
2022/12/21 07:42:25;;;;;;;11.27;8.73;;;;;;;6.56;83.08;96537.72;4991936;28;20050;-81
2022/12/21 07:44:53;;;;;;;11.75;8.68;;;;;;;6.58;82.84;96535.78;4992272;28;20065;-79
2022/12/21 07:47:20;;;;;;;13.85;8.07;;;;;;;6.59;83.19;96532.22;4985478;28;20042;-80
2022/12/21 07:49:48;;;;;;;12.65;9.23;;;;;;;6.64;83.21;96538.69;4990932;28;20504;-80
2022/12/21 07:52:15;;;;;;;13.05;9.40;;;;;;;6.67;82.99;96538.38;4991775;28;20046;-80
2022/12/21 07:54:43;;;;;;;10.57;7.82;;;;;;;6.69;83.26;96539.84;4992641;28;20042;-81
2022/12/21 07:57:16;;;;;;;11.10;7.90;;;;;;;6.74;83.28;96534.19;4997258;28;20066;-80
2022/12/21 07:59:45;;;;;;;10.55;7.63;;;;;;;6.76;83.17;96540.84;4994071;28;20054;-80
2022/12/21 08:02:13;;;;;;;9.23;7.20;;;;;;;6.80;83.32;96539.56;4996307;28;20517;-79
2022/12/21 08:04:41;;;;;;;9.73;7.68;;;;;;;6.84;83.31;96532.25;4999176;28;20129;-80
2022/12/21 08:07:08;;;;;;;10.52;7.68;;;;;;;6.87;83.21;96539.72;4999728;28;20054;-81
2022/12/21 08:09:36;;;;;;;11.80;7.50;;;;;;;6.90;83.35;96531.63;4998807;28;20057;-80
2022/12/21 08:12:04;;;;;;;9.02;7.80;;;;;;;6.95;83.10;96534.56;4998458;28;20521;-80
2022/12/21 08:14:32;;;;;;;11.57;7.57;;;;;;;6.97;83.42;96529.19;4997336;28;20054;-80
2022/12/21 08:17:01;;;;;;;7.97;6.82;;;;;;;7.00;83.47;96537.47;4998743;28;20517;-81
2022/12/21 08:19:28;;;;;;;10.35;7.38;;;;;;;7.03;83.13;96538.13;4992322;28;20050;-79
2022/12/21 08:21:56;;;;;;;9.70;7.22;;;;;;;7.07;83.19;96542.81;4998353;28;20050;-79
2022/12/21 08:24:24;;;;;;;11.35;6.72;;;;;;;7.11;83.14;96540.72;5003908;28;20427;-81
2022/12/21 08:26:51;;;;;;;9.55;6.70;;;;;;;7.14;83.29;96540.41;4999270;28;20570;-81
2022/12/21 08:29:19;;;;;;;9.38;6.75;;;;;;;7.20;83.38;96544.94;4984651;28;20055;-80
2022/12/21 08:31:47;;;;;;;10.18;6.70;;;;;;;7.25;83.46;96539.25;4995500;28;20042;-80
2022/12/21 08:34:16;;;;;;;8.65;6.40;;;;;;;7.29;83.13;96543.97;4999622;28;20505;-81
2022/12/21 08:36:43;;;;;;;8.15;6.30;;;;;;;7.31;83.00;96539.44;4999675;28;20058;-80
2022/12/21 08:39:11;;;;;;;8.88;6.20;;;;;;;7.34;83.04;96539.09;4999731;28;20050;-81
2022/12/21 08:41:38;;;;;;;9.85;6.95;;;;;;;7.38;83.10;96537.00;4998766;28;20049;-80
2022/12/21 08:44:06;;;;;;;9.00;6.80;;;;;;;7.41;83.02;96537.47;4999961;28;20559;-80
2022/12/21 08:46:34;;;;;;;8.57;6.72;;;;;;;7.46;83.05;96538.78;4998026;28;20050;-80
2022/12/21 08:49:02;;;;;;;10.90;6.95;;;;;;;7.48;82.88;96539.41;5000100;28;20112;-80
2022/12/21 08:51:31;;;;;;;10.30;6.40;;;;;;;7.53;83.12;96534.56;4999287;28;20118;-80
2022/12/21 08:53:59;;;;;;;10.27;7.18;;;;;;;7.55;82.88;96538.59;4995847;28;20401;-80
2022/12/21 08:56:27;;;;;;;11.43;6.15;;;;;;;7.58;82.83;96535.66;4998696;28;20465;-81
2022/12/21 08:58:54;;;;;;;10.82;7.05;;;;;;;7.61;82.74;96537.16;4988015;28;20054;-80
2022/12/21 09:01:23;;;;;;;10.35;5.95;;;;;;;7.64;83.08;96545.41;4995396;28;20046;-80
2022/12/21 09:03:51;;;;;;;8.70;6.28;;;;;;;7.67;82.47;96546.84;4994149;28;20117;-80
2022/12/21 09:06:19;;;;;;;8.35;6.70;;;;;;;7.70;82.74;96543.94;4998974;28;20133;-80
2022/12/21 09:08:51;;;;;;;9.82;6.90;;;;;;;7.73;82.74;96551.38;4985935;28;20054;-80
2022/12/21 09:11:22;;;;;;;9.73;6.72;;;;;;;7.76;82.62;96556.28;4995288;28;20504;-80
2022/12/21 09:13:58;;;;;;;8.82;7.18;;;;;;;7.79;82.55;96555.94;4995960;28;20484;-81
2022/12/21 09:16:26;;;;;;;12.52;7.82;;;;;;;7.82;82.32;96559.97;4995402;28;20475;-80
2022/12/21 09:18:54;;;;;;;14.93;7.80;;;;;;;7.83;82.35;96561.63;5020904;23;20042;-79
2022/12/21 09:21:23;;;;;;;11.82;8.23;;;;;;;7.84;82.40;96555.44;5000416;28;20046;-80
2022/12/21 09:23:53;;;;;;;12.90;8.80;;;;;;;7.88;82.37;96558.50;4995622;28;20062;-80
2022/12/21 09:26:25;;;;;;;15.40;8.57;;;;;;;7.90;82.57;96565.16;4998436;28;20427;-80
2022/12/21 09:28:54;;;;;;;24.27;11.80;;;;;;;7.94;82.52;96561.25;4982960;28;20050;-80
2022/12/21 09:31:23;;;;;;;15.38;8.48;;;;;;;7.97;82.46;96565.31;4980271;28;20082;-79
2022/12/21 09:33:59;;;;;;;14.43;9.48;;;;;;;8.00;82.45;96564.97;4977533;28;20046;-79
2022/12/21 09:36:26;;;;;;;11.52;8.18;;;;;;;8.02;82.32;96561.25;4975381;28;20051;-74
2022/12/21 09:38:55;;;;;;;9.65;6.88;;;;;;;8.03;82.41;96562.06;4958494;28;20134;-76
2022/12/21 09:41:38;;;;;;;10.73;6.95;;;;;;;8.07;82.47;96563.34;4975772;28;20460;-77
2022/12/21 09:44:21;;;;;;;10.45;7.45;;;;;;;8.07;82.25;96568.53;4988503;28;20047;-75
2022/12/21 09:46:50;;;;;;;;;;;;;;;8.09;82.31;96561.38;4959945;28;20046;-75
2022/12/21 09:49:21;;;;;;;8.75;7.32;;;;;;;8.09;82.08;96561.38;4984060;28;19930;-78
2022/12/21 09:51:54;;;;;;;12.68;7.28;;;;;;;8.12;82.24;96553.25;4968427;28;20051;-79
2022/12/21 09:54:29;;;;;;;10.15;7.60;;;;;;;8.15;82.00;96558.09;4969506;28;20417;-79
2022/12/21 09:56:57;;;;;;;11.45;7.75;;;;;;;8.18;82.33;96557.78;4981315;28;20051;-79
2022/12/21 09:59:25;;;;;;;13.23;8.75;;;;;;;8.20;82.39;96555.03;4993166;28;20123;-80
2022/12/21 10:02:00;;;;;;;12.13;8.82;;;;;;;8.22;82.34;96556.47;4983619;28;20241;-79
2022/12/21 10:04:43;;;;;;;9.13;7.40;;;;;;;8.23;82.16;96550.28;4979901;28;20065;-78
2022/12/21 10:07:54;;;;;;;14.43;9.23;;;;;;;8.25;82.23;96548.34;4978572;28;20042;-78
2022/12/21 10:10:35;;;;;;;8.93;7.15;;;;;;;8.27;81.92;96552.56;4976798;28;20078;-79
2022/12/21 10:13:12;;;;;;;9.93;5.82;;;;;;;8.27;81.92;96549.97;4981107;28;20049;-79
2022/12/21 10:15:52;;;;;;;9.68;6.43;;;;;;;8.27;82.29;96552.56;4976689;28;20050;-79
2022/12/21 10:18:27;;;;;;;7.90;6.63;;;;;;;8.28;82.11;96539.38;4977642;28;20528;-79
2022/12/21 10:21:00;;;;;;;10.63;6.75;;;;;;;8.30;82.23;96541.81;4976850;28;20052;-79
2022/12/21 10:23:32;;;;;;;;;;;;;;;8.34;82.44;96540.50;4976783;28;20161;-79
2022/12/21 10:26:05;;;;;;;9.35;6.95;;;;;;;8.35;82.16;96542.13;4989441;28;19996;-79
2022/12/21 10:28:44;;;;;;;11.82;6.75;;;;;;;8.34;82.70;96543.09;5006781;28;20059;-80
2022/12/21 10:31:21;;;;;;;8.48;6.95;;;;;;;8.36;82.61;96541.97;5009012;28;20094;-79
2022/12/21 10:33:52;;;;;;;7.05;5.85;;;;;;;8.37;82.49;96547.97;4991369;28;20445;-78
2022/12/21 10:36:22;;;;;;;8.27;6.07;;;;;;;8.38;82.68;96544.41;4983327;28;20058;-79
2022/12/21 10:38:50;;;;;;;8.95;5.93;;;;;;;8.39;82.53;96546.00;4982567;28;20136;-79
2022/12/21 10:41:26;;;;;;;7.95;6.30;;;;;;;8.40;82.68;96540.69;4976355;28;20062;-79
2022/12/21 10:44:02;;;;;;;6.90;5.72;;;;;;;8.42;82.71;96545.72;4980070;28;20058;-79
2022/12/21 10:46:35;;;;;;;6.65;5.70;;;;;;;8.44;82.63;96541.16;4995528;28;20054;-78
2022/12/21 10:53:32;;;;;;;9.23;6.15;;;;;;;8.51;82.93;96534.28;4983805;28;20041;-79
2022/12/21 10:56:03;;;;;;;7.70;5.05;;;;;;;8.52;82.38;96530.69;4990573;28;20055;-79
2022/12/21 10:58:53;;;;;;;6.97;5.00;;;;;;;8.53;82.51;96532.34;4975349;28;20078;-79
2022/12/21 11:01:35;;;;;;;5.00;4.22;;;;;;;8.53;82.51;96537.53;4974816;28;20191;-80
2022/12/21 11:04:13;;;;;;;6.35;5.53;;;;;;;8.52;82.47;96543.69;4960880;28;20159;-80
2022/12/21 11:06:55;;;;;;;6.68;5.22;;;;;;;8.55;82.49;96543.38;4965776;28;20061;-79
2022/12/21 11:09:29;;;;;;;6.78;5.45;;;;;;;8.57;82.39;96548.38;4974612;28;20637;-80
2022/12/21 11:11:57;;;;;;;7.47;5.00;;;;;;;8.58;82.24;96543.03;4967814;28;20058;-80
2022/12/21 11:14:38;;;;;;;4.70;4.22;;;;;;;8.62;82.66;96546.91;4990717;28;20039;-81
2022/12/21 11:17:07;;;;;;;5.60;4.45;;;;;;;8.65;82.43;96536.16;4989893;28;20047;-80
2022/12/21 11:19:36;;;;;;;6.90;4.65;;;;;;;8.67;82.23;96535.97;4986431;28;20054;-81
2022/12/21 11:22:14;;;;;;;7.55;4.90;;;;;;;8.70;82.45;96529.63;4993417;28;20043;-81
2022/12/21 11:25:03;;;;;;;6.22;4.30;;;;;;;8.70;82.20;96524.44;5002445;28;20055;-81
2022/12/21 11:27:33;;;;;;;6.45;4.63;;;;;;;8.72;82.24;96530.28;4993472;28;20114;-80
2022/12/21 11:30:07;;;;;;;6.18;5.22;;;;;;;8.76;82.29;96531.56;5003679;28;20343;-81
2022/12/21 11:32:42;;;;;;;5.18;4.30;;;;;;;8.78;82.08;96532.19;4999873;28;20058;-80
2022/12/21 11:35:19;;;;;;;4.88;4.20;;;;;;;8.82;82.14;96525.66;4995640;28;20118;-80
2022/12/21 11:37:52;;;;;;;6.15;4.40;;;;;;;8.84;82.39;96519.31;4990654;28;20063;-81
2022/12/21 11:40:22;;;;;;;6.07;5.03;;;;;;;8.86;82.17;96521.75;4975161;28;20078;-79
2022/12/21 11:42:54;;;;;;;6.18;5.03;;;;;;;8.89;82.07;96523.19;4974693;28;20207;-80
2022/12/21 11:45:26;;;;;;;7.23;4.83;;;;;;;8.92;82.25;96518.47;4974595;28;20054;-80
2022/12/21 11:48:16;;;;;;;4.75;3.75;;;;;;;8.95;82.34;96509.50;4975133;28;20333;-80
2022/12/21 11:51:18;;;;;;;3.45;3.15;;;;;;;8.98;82.18;96519.53;4964363;28;20043;-83
2022/12/21 11:57:06;;;;;;;5.65;4.32;;;;;;;9.03;81.94;96512.84;4984366;28;20057;-81
2022/12/21 11:59:52;;;;;;;7.43;5.47;;;;;;;9.07;82.11;96506.31;4998895;28;20054;-82
2022/12/21 12:03:00;;;;;;;9.32;5.25;;;;;;;9.12;81.50;96497.16;4997077;28;20058;-81
2022/12/21 12:05:43;;;;;;;5.03;4.15;;;;;;;9.17;81.75;96503.47;4976797;28;20051;-81
2022/12/21 12:08:27;;;;;;;5.28;2.70;;;;;;;9.23;81.71;96499.34;4976938;28;20055;-82
2022/12/21 12:11:09;;;;;;;2.05;1.75;;;;;;;9.37;81.21;96493.34;4982341;28;20058;-81
2022/12/21 12:13:55;;;;;;;1.90;1.65;;;;;;;9.70;81.37;96493.03;4999301;28;20053;-82
2022/12/21 12:16:31;;;;;;;2.25;1.60;;;;;;;10.34;79.63;96489.88;4980660;28;20095;-81
2022/12/21 12:19:14;;;;;;;1.35;1.30;;;;;;;11.82;76.06;96488.41;4978934;28;20054;-82
2022/12/21 12:22:25;;;;;;;1.52;1.42;;;;;;;12.75;72.10;96478.34;4982289;28;20412;-82
2022/12/21 12:25:12;;;;;;;1.90;1.27;;;;;;;13.27;68.44;96486.47;4980941;28;20062;-82
2022/12/21 12:28:00;;;;;;;1.40;1.30;;;;;;;13.26;68.16;96490.09;4983789;28;20077;-82
2022/12/21 12:34:32;;;;;;;1.17;1.08;;;;;;;14.22;64.03;96491.38;4995553;28;20508;-83
2022/12/21 12:37:16;;;;;;;1.95;1.15;;;;;;;13.84;65.09;96491.28;4997588;28;20046;-82
2022/12/21 12:39:58;;;;;;;1.25;1.17;;;;;;;13.42;65.85;96485.47;4988347;28;20140;-82
2022/12/21 12:42:33;;;;;;;2.28;0.93;;;;;;;13.06;67.01;96490.09;4978405;28;20055;-83
2022/12/21 12:45:16;;;;;;;1.63;0.95;;;;;;;12.78;68.10;96487.63;4986939;28;20051;-83
2022/12/21 12:47:54;;;;;;;2.55;1.10;;;;;;;12.57;69.14;96488.56;4990206;28;20051;-83
2022/12/21 12:50:35;;;;;;;2.13;1.17;;;;;;;12.42;69.49;96493.97;4983175;28;20055;-82
2022/12/21 12:53:19;;;;;;;1.05;0.60;;;;;;;12.29;69.99;96486.06;4999532;28;20054;-82
2022/12/21 12:56:00;;;;;;;1.15;0.80;;;;;;;12.18;70.02;96487.41;5004707;28;20069;-84
2022/12/21 12:58:47;;;;;;;1.10;0.80;;;;;;;12.07;69.92;96487.94;4985815;28;20061;-81
2022/12/21 13:01:26;;;;;;;2.58;1.35;;;;;;;12.00;70.83;96476.66;4977665;28;20054;-83
2022/12/21 13:04:45;;;;;;;0.90;0.70;;;;;;;11.91;70.80;96476.81;4980863;28;20106;-83
2022/12/21 13:07:31;;;;;;;1.77;0.98;;;;;;;11.83;71.11;96474.34;4982135;28;20126;-83
2022/12/21 13:10:11;;;;;;;1.10;0.90;;;;;;;11.74;71.41;96478.09;4988067;28;20047;-81
2022/12/21 13:12:51;;;;;;;1.88;1.10;;;;;;;11.70;71.65;96476.88;4982632;28;20524;-81
2022/12/21 13:15:29;;;;;;;1.60;1.40;;;;;;;11.67;71.93;96474.63;4984617;28;20046;-81
2022/12/21 13:18:03;;;;;;;1.70;1.30;;;;;;;11.63;72.13;96473.41;4981293;28;20135;-81
2022/12/21 13:20:37;;;;;;;1.95;1.63;;;;;;;11.60;72.15;96471.19;5001560;28;20133;-81
2022/12/21 13:23:13;;;;;;;1.77;1.58;;;;;;;11.61;72.46;96475.38;4994390;28;20050;-82
2022/12/21 13:25:47;;;;;;;1.50;1.40;;;;;;;11.64;72.48;96475.03;4963785;28;20420;-82
2022/12/21 13:28:21;;;;;;;1.88;1.67;;;;;;;11.66;72.78;96480.88;4978714;28;20199;-81
2022/12/21 13:30:55;;;;;;;2.08;1.50;;;;;;;11.67;72.63;96472.03;4992398;28;20058;-83
2022/12/21 13:33:35;;;;;;;1.70;1.50;;;;;;;11.67;72.22;96475.44;4989560;28;20137;-83
2022/12/21 13:36:12;;;;;;;1.27;1.17;;;;;;;11.68;72.25;96478.88;4973778;28;20051;-81
2022/12/21 13:38:47;;;;;;;1.70;1.17;;;;;;;11.70;72.27;96474.28;4978113;28;20051;-81
2022/12/21 13:41:23;;;;;;;2.45;1.20;;;;;;;11.68;72.54;96471.03;4994760;28;20043;-81
2022/12/21 13:44:05;;;;;;;2.95;1.10;;;;;;;11.71;72.08;96481.91;4987754;28;20118;-83
2022/12/21 13:46:51;;;;;;;;;;;;;;;11.74;72.49;96475.47;5000097;28;20059;-83
2022/12/21 13:49:31;;;;;;;1.38;0.90;;;;;;;11.71;72.08;96481.09;4985825;28;20535;-83
2022/12/21 13:52:10;;;;;;;0.95;0.85;;;;;;;11.69;72.54;96475.25;4964461;28;20078;-84
2022/12/21 13:57:39;;;;;;;14.98;9.68;;;;;;;11.68;72.39;96481.50;4989046;28;20050;-82
2022/12/21 14:00:22;;;;;;;9.00;5.75;;;;;;;11.67;72.36;96482.47;4988731;28;20569;-83
2022/12/21 14:03:01;;;;;;;3.50;2.75;;;;;;;11.65;72.26;96482.66;4971144;28;20058;-83
2022/12/21 14:05:37;;;;;;;1.15;1.00;;;;;;;11.63;72.31;96486.47;4988680;28;20058;-83
2022/12/21 14:08:50;;;;;;;2.05;1.17;;;;;;;11.63;72.45;96481.22;4988848;28;20051;-81
2022/12/21 14:11:36;;;;;;;1.33;1.15;;;;;;;11.60;72.18;96479.03;4910171;29;20135;-81
2022/12/21 14:14:42;;;;;;;1.35;1.02;;;;;;;11.58;72.38;96475.78;4920590;29;20056;-81
2022/12/21 14:17:17;;;;;;;0.93;0.93;;;;;;;11.54;72.25;96481.41;4964777;28;20049;-81
2022/12/21 14:19:53;;;;;;;1.45;1.20;;;;;;;11.51;72.32;96479.16;4991162;28;20133;-81
2022/12/21 14:22:40;;;;;;;1.17;1.08;;;;;;;11.47;72.53;96472.69;4995988;28;20411;-81
2022/12/21 14:25:19;;;;;;;2.60;1.58;;;;;;;11.43;72.31;96474.06;4978958;28;20062;-83
2022/12/21 14:28:06;;;;;;;3.13;1.70;;;;;;;11.39;72.51;96472.84;4980500;28;20094;-81
2022/12/21 14:30:34;;;;;;;2.22;1.98;;;;;;;11.38;72.60;96473.03;4970834;28;20500;-80
2022/12/21 14:33:10;;;;;;;47.50;33.50;;;;;;;11.35;72.74;96474.22;4991538;28;20078;-81
2022/12/21 14:35:42;;;;;;;9.57;6.28;;;;;;;11.34;72.91;96470.00;4973548;28;20126;-81
2022/12/21 14:38:30;;;;;;;4.85;4.32;;;;;;;11.32;73.07;96471.97;4984285;28;20428;-81
2022/12/21 14:41:02;;;;;;;2.17;1.98;;;;;;;11.30;73.02;96468.75;4984343;28;20520;-81
2022/12/21 14:44:10;;;;;;;2.80;1.90;;;;;;;11.28;73.04;96465.50;4959071;29;20062;-81
2022/12/21 14:47:01;;;;;;;2.67;2.20;;;;;;;11.24;72.91;96467.72;4987241;28;20056;-82
2022/12/21 14:49:32;;;;;;;3.38;2.92;;;;;;;11.18;72.71;96454.59;4997009;28;20052;-80
2022/12/21 14:52:03;;;;;;;3.92;2.60;;;;;;;11.12;72.85;96456.97;4985400;28;20146;-81
2022/12/21 14:54:42;;;;;;;3.35;2.72;;;;;;;11.07;73.14;96451.50;4969473;28;20087;-81
2022/12/21 14:57:23;;;;;;;6.15;3.03;;;;;;;11.01;73.11;96452.25;4973238;28;20050;-81
2022/12/21 15:00:04;;;;;;;4.65;2.95;;;;;;;10.94;73.05;96456.63;4986936;28;20081;-81
2022/12/21 15:02:49;;;;;;;4.70;3.20;;;;;;;10.88;73.39;96459.97;4978398;28;20054;-82
2022/12/21 15:05:37;;;;;;;3.85;3.10;;;;;;;10.79;73.65;96459.28;4992206;28;20496;-81
2022/12/21 15:08:18;;;;;;;4.93;2.83;;;;;;;10.72;73.74;96461.81;4997923;28;20051;-83
2022/12/21 15:10:56;;;;;;;4.70;2.95;;;;;;;10.64;73.73;96458.53;4992331;28;20059;-81
2022/12/21 15:13:43;;;;;;;3.25;2.95;;;;;;;10.52;73.81;96447.78;4977136;28;20053;-81
2022/12/21 15:16:25;;;;;;;5.18;3.58;;;;;;;10.44;73.90;96458.31;4966503;28;20099;-81
2022/12/21 15:18:59;;;;;;;5.03;4.18;;;;;;;10.36;74.12;96461.84;4970997;28;20601;-81
2022/12/21 15:21:44;;;;;;;4.68;4.15;;;;;;;10.30;74.28;96452.97;5033521;23;20479;-81
2022/12/21 15:24:17;;;;;;;5.03;3.92;;;;;;;10.24;74.49;96445.84;5005100;28;20050;-81
2022/12/21 15:26:51;;;;;;;4.95;3.58;;;;;;;10.18;74.77;96459.59;5014245;28;20133;-80
2022/12/21 15:29:25;;;;;;;4.85;3.80;;;;;;;10.14;74.78;96458.34;5032003;28;20042;-80
2022/12/21 15:31:57;;;;;;;5.03;3.83;;;;;;;10.09;74.79;96455.47;5008855;28;20051;-80
2022/12/21 15:34:33;;;;;;;4.50;3.47;;;;;;;10.04;74.88;96453.44;4998006;28;20058;-80
2022/12/21 15:37:11;;;;;;;5.63;4.18;;;;;;;10.00;74.99;96456.59;4995379;28;20142;-80
2022/12/21 15:39:41;;;;;;;4.18;3.15;;;;;;;9.95;75.07;96458.91;4995662;28;20058;-79
2022/12/21 15:42:17;;;;;;;4.00;3.33;;;;;;;9.91;75.01;96458.47;5004166;28;20050;-79
2022/12/21 15:44:52;;;;;;;4.88;3.83;;;;;;;9.86;75.28;96466.84;4984447;28;20133;-80
2022/12/21 15:47:31;;;;;;;6.40;4.22;;;;;;;9.83;75.62;96464.56;4989215;28;20411;-80
2022/12/21 15:50:06;;;;;;;5.18;4.30;;;;;;;9.80;75.29;96467.56;4996193;28;20046;-80
2022/12/21 15:52:41;;;;;;;5.30;4.60;;;;;;;9.77;75.46;96465.28;4986890;28;20046;-79
2022/12/21 15:55:14;;;;;;;4.22;3.83;;;;;;;9.74;75.58;96470.88;4996343;28;20046;-80
2022/12/21 15:57:45;;;;;;;4.85;4.28;;;;;;;9.72;75.56;96475.44;4994175;28;20527;-79
2022/12/21 16:00:16;;;;;;;11.57;7.05;;;;;;;9.69;75.61;96481.03;4994585;28;20060;-80
2022/12/21 16:02:46;;;;;;;9.02;7.40;;;;;;;9.67;75.59;96478.59;4984056;28;20046;-79
2022/12/21 16:05:19;;;;;;;10.43;7.85;;;;;;;9.65;75.60;96482.38;4996378;28;20069;-80
2022/12/21 16:07:50;;;;;;;10.02;8.50;;;;;;;9.62;75.81;96478.31;5007250;28;20081;-79
2022/12/21 16:10:25;;;;;;;11.70;7.57;;;;;;;9.61;75.74;96479.31;5009641;28;20057;-79
2022/12/21 16:12:56;;;;;;;9.40;6.25;;;;;;;9.57;75.63;96479.84;5003920;28;20065;-78
2022/12/21 16:15:29;;;;;;;9.50;6.70;;;;;;;9.53;75.75;96479.38;5012638;28;20053;-80
2022/12/21 16:18:18;;;;;;;;;;;;;;;9.52;76.15;96480.38;5000485;28;20050;-80
2022/12/21 16:20:58;;;;;;;7.57;6.25;;;;;;;9.46;76.06;96481.88;4997407;28;19922;-80
2022/12/21 16:23:32;;;;;;;7.43;5.82;;;;;;;9.43;76.09;96486.66;5012688;28;20050;-79
2022/12/21 16:26:00;;;;;;;6.72;6.03;;;;;;;9.37;76.06;96493.34;5003347;28;20488;-80